Station Historical Data
Daily Summary for June 27, 2017 Units:  English    Metric   Both
« Previous Day
Next Day »
Daily Weekly Monthly Yearly Custom
  High: Low: Average:
Temperature: 83.2 °F 65.5 °F 72.7 °F
Dew Point: 62.4 °F 50.0 °F 57.8 °F
Humidity: 84% 34% 62%
Wind Speed: 5.1mph 0.0mph 4.3mph
Wind Gust: 5.1mph - -
Wind- - SE
Pressure: 30.10 in 30.03 in -
Precipitation: 0.02 in    
Historical Graphs
 
 
Tabular Data for June 27, 2017
Time Temperature Dew Point Pressure Wind Wind Speed Wind Gust Humidity Rainfall Rate (Hourly) solar Conditions
00:03 67.4 °F 60.7 °F 30.09 in East 4.6 mph   79% 0.00 in WeatherDisplay:10.37 W/m2 SCT
00:08 67.1 °F 60.4 °F 30.08 in East 4.6 mph   79% 0.00 in WeatherDisplay:10.37 W/m2 SCT
00:13 66.9 °F 60.2 °F 30.09 in East 4.6 mph   79% 0.00 in WeatherDisplay:10.37 W/m2 SCT
00:18 66.8 °F 60.8 °F 30.09 in East 4.6 mph   81% 0.00 in WeatherDisplay:10.37 W/m2 SCT
00:23 66.6 °F 60.6 °F 30.09 in East 4.6 mph   81% 0.00 in WeatherDisplay:10.37 W/m2 CLR
00:28 66.5 °F 60.5 °F 30.10 in East 4.6 mph   81% 0.00 in WeatherDisplay:10.37 W/m2 CLR
00:33 65.5 °F 59.5 °F 30.10 in East 4.6 mph   81% 0.00 in WeatherDisplay:10.37 W/m2 CLR
00:38 65.5 °F 59.2 °F 30.10 in East 4.6 mph   80% 0.00 in WeatherDisplay:10.37 W/m2 CLR
00:43 65.5 °F 59.2 °F 30.09 in East 4.6 mph   80% 0.00 in WeatherDisplay:10.37 W/m2 CLR
00:48 65.5 °F 59.2 °F 30.09 in North 4.6 mph   80% 0.00 in WeatherDisplay:10.37 W/m2 CLR
00:53 65.5 °F 59.2 °F 30.09 in North 4.6 mph   80% 0.00 in WeatherDisplay:10.37 W/m2 CLR
00:58 65.5 °F 59.2 °F 30.09 in North 4.6 mph   80% 0.00 in WeatherDisplay:10.37 W/m2 CLR
01:03 65.5 °F 59.2 °F 30.09 in North 4.6 mph   80% 0.00 in WeatherDisplay:10.37 W/m2 CLR
01:08 65.5 °F 59.2 °F 30.09 in North 4.6 mph   80% 0.00 in WeatherDisplay:10.37 W/m2 CLR
01:13 65.5 °F 59.2 °F 30.09 in North 4.6 mph   80% 0.00 in WeatherDisplay:10.37 W/m2 CLR
01:18 65.5 °F 59.2 °F 30.09 in North 4.6 mph   80% 0.00 in WeatherDisplay:10.37 W/m2 CLR
01:23 65.5 °F 59.2 °F 30.09 in North 4.6 mph   80% 0.00 in WeatherDisplay:10.37 W/m2 OVC
01:29 65.5 °F 59.2 °F 30.09 in North 4.6 mph   80% 0.00 in WeatherDisplay:10.37 W/m2 OVC
01:34 65.5 °F 59.2 °F 30.09 in North 4.6 mph   80% 0.00 in WeatherDisplay:10.37 W/m2 OVC
01:39 65.5 °F 59.2 °F 30.09 in North 4.6 mph   80% 0.00 in WeatherDisplay:10.37 W/m2 OVC
01:44 65.5 °F 59.2 °F 30.08 in North 4.6 mph   80% 0.00 in WeatherDisplay:10.37 W/m2 OVC
01:49 65.5 °F 59.2 °F 30.08 in North 4.6 mph   80% 0.00 in WeatherDisplay:10.37 W/m2 OVC
01:54 65.5 °F 59.2 °F 30.09 in North 4.6 mph   80% 0.00 in WeatherDisplay:10.37 W/m2 OVC
01:59 65.5 °F 59.2 °F 30.08 in North 4.6 mph   80% 0.00 in WeatherDisplay:10.37 W/m2 OVC
02:04 65.5 °F 59.2 °F 30.08 in North 4.6 mph   80% 0.00 in WeatherDisplay:10.37 W/m2 OVC
02:09 65.5 °F 59.2 °F 30.08 in North 4.6 mph   80% 0.00 in WeatherDisplay:10.37 W/m2 OVC
02:14 65.5 °F 59.2 °F 30.08 in North 4.6 mph   80% 0.00 in WeatherDisplay:10.37 W/m2 OVC
02:19 65.5 °F 59.2 °F 30.08 in North 4.6 mph   80% 0.00 in WeatherDisplay:10.37 W/m2 OVC
02:24 65.5 °F 59.2 °F 30.08 in North 4.6 mph   80% 0.00 in WeatherDisplay:10.37 W/m2 OVC
02:29 65.5 °F 59.2 °F 30.08 in North 4.6 mph   80% 0.00 in WeatherDisplay:10.37 W/m2 OVC
02:34 65.5 °F 59.2 °F 30.08 in North 4.6 mph   80% 0.00 in WeatherDisplay:10.37 W/m2 OVC
02:40 65.5 °F 59.2 °F 30.07 in Calm     80% 0.00 in WeatherDisplay:10.37 W/m2 OVC
02:45 65.5 °F 59.2 °F 30.07 in Calm     80% 0.00 in WeatherDisplay:10.37 W/m2 OVC
02:50 65.5 °F 59.2 °F 30.07 in North 4.6 mph   80% 0.00 in WeatherDisplay:10.37 W/m2 OVC
02:55 65.5 °F 59.2 °F 30.07 in North 4.6 mph   80% 0.00 in WeatherDisplay:10.37 W/m2 OVC
03:00 65.5 °F 59.2 °F 30.07 in North 4.6 mph   80% 0.00 in WeatherDisplay:10.37 W/m2 OVC
03:05 65.5 °F 59.2 °F 30.07 in North 4.6 mph   80% 0.00 in WeatherDisplay:10.37 W/m2 OVC
03:10 65.5 °F 59.2 °F 30.06 in North 4.6 mph   80% 0.00 in WeatherDisplay:10.37 W/m2 OVC
03:15 65.5 °F 59.2 °F 30.06 in North 4.6 mph   80% 0.00 in WeatherDisplay:10.37 W/m2 CLR
03:20 65.5 °F 59.2 °F 30.06 in North 4.6 mph   80% 0.00 in WeatherDisplay:10.37 W/m2 CLR
03:25 65.5 °F 59.2 °F 30.06 in North 4.6 mph   80% 0.00 in WeatherDisplay:10.37 W/m2 CLR
03:30 65.5 °F 59.2 °F 30.06 in North 4.6 mph   80% 0.00 in WeatherDisplay:10.37 W/m2 CLR
03:35 65.5 °F 59.2 °F 30.06 in North 4.6 mph   80% 0.00 in WeatherDisplay:10.37 W/m2 CLR
03:40 65.5 °F 59.2 °F 30.06 in North 4.6 mph   80% 0.00 in WeatherDisplay:10.37 W/m2 CLR
03:45 65.5 °F 59.2 °F 30.06 in North 4.6 mph   80% 0.00 in WeatherDisplay:10.37 W/m2 CLR
03:51 65.5 °F 59.2 °F 30.06 in North 4.6 mph   80% 0.00 in WeatherDisplay:10.37 W/m2 CLR
03:56 65.5 °F 59.2 °F 30.06 in North 4.6 mph   80% 0.00 in WeatherDisplay:10.37 W/m2 CLR
04:01 65.5 °F 59.2 °F 30.06 in North 4.6 mph   80% 0.00 in WeatherDisplay:10.37 W/m2 CLR
04:06 65.5 °F 59.2 °F 30.06 in North 4.6 mph   80% 0.00 in WeatherDisplay:10.37 W/m2 CLR
04:11 65.5 °F 59.2 °F 30.06 in North 4.6 mph   80% 0.00 in WeatherDisplay:10.37 W/m2 CLR
04:16 65.5 °F 59.2 °F 30.06 in North 4.6 mph   80% 0.00 in WeatherDisplay:10.37 W/m2 CLR
04:21 65.5 °F 59.2 °F 30.06 in North 4.6 mph   80% 0.00 in WeatherDisplay:10.37 W/m2 CLR
04:26 65.5 °F 59.2 °F 30.06 in North 4.6 mph   80% 0.00 in WeatherDisplay:10.37 W/m2 CLR
04:31 65.5 °F 59.2 °F 30.06 in North 4.6 mph   80% 0.00 in WeatherDisplay:10.37 W/m2 CLR
04:36 65.5 °F 59.2 °F 30.05 in North 4.6 mph   80% 0.00 in WeatherDisplay:10.37 W/m2 CLR
04:41 65.5 °F 59.2 °F 30.05 in North 4.6 mph   80% 0.00 in WeatherDisplay:10.37 W/m2 CLR
04:46 65.5 °F 59.2 °F 30.05 in North 4.6 mph   80% 0.00 in WeatherDisplay:10.37 W/m2 CLR
04:51 65.5 °F 59.2 °F 30.05 in North 4.6 mph   80% 0.00 in WeatherDisplay:10.37 W/m2 CLR
04:56 65.5 °F 59.2 °F 30.05 in North 4.6 mph   80% 0.00 in WeatherDisplay:10.37 W/m2 CLR
05:02 65.5 °F 59.2 °F 30.05 in North 4.6 mph   80% 0.00 in WeatherDisplay:10.37 W/m2 CLR
05:07 65.5 °F 59.2 °F 30.05 in North 4.6 mph   80% 0.00 in WeatherDisplay:10.37 W/m2 CLR
05:12 65.5 °F 59.2 °F 30.05 in North 4.6 mph   80% 0.00 in WeatherDisplay:10.37 W/m2 CLR
05:17 65.5 °F 59.2 °F 30.05 in North 4.6 mph   80% 0.00 in WeatherDisplay:10.37 W/m2 CLR
05:22 65.5 °F 59.2 °F 30.05 in North 4.6 mph   80% 0.00 in WeatherDisplay:10.37 W/m2 CLR
05:27 65.5 °F 59.2 °F 30.05 in North 4.6 mph   80% 0.00 in WeatherDisplay:10.37 W/m2 CLR
05:32 65.5 °F 59.2 °F 30.05 in North 4.6 mph   80% 0.00 in WeatherDisplay:10.37 W/m2 CLR
05:37 65.5 °F 59.2 °F 30.05 in North 4.6 mph   80% 0.00 in WeatherDisplay:10.37 W/m2 CLR
05:42 65.5 °F 59.2 °F 30.05 in North 4.6 mph   80% 0.00 in WeatherDisplay:10.37 W/m2 CLR
05:47 65.5 °F 59.2 °F 30.06 in North 4.6 mph   80% 0.00 in WeatherDisplay:10.37 W/m2 CLR
05:52 65.5 °F 59.2 °F 30.06 in North 4.6 mph   80% 0.00 in WeatherDisplay:10.37 W/m2 CLR
05:57 65.5 °F 59.2 °F 30.06 in North 4.6 mph   80% 0.00 in WeatherDisplay:10.37 W/m2 CLR
06:02 65.5 °F 59.2 °F 30.06 in North 4.6 mph   80% 0.00 in WeatherDisplay:10.37 W/m2 CLR
06:07 65.5 °F 59.2 °F 30.06 in North 4.6 mph   80% 0.00 in WeatherDisplay:10.37 W/m2 CLR
06:13 65.5 °F 59.2 °F 30.07 in North 4.6 mph   80% 0.00 in WeatherDisplay:10.37 W/m2 CLR
06:18 65.5 °F 59.2 °F 30.07 in North 4.6 mph   80% 0.00 in WeatherDisplay:10.37 W/m2 CLR
06:23 65.5 °F 59.2 °F 30.07 in North 4.6 mph   80% 0.00 in WeatherDisplay:10.37 W/m2 CLR
06:28 65.5 °F 59.2 °F 30.07 in North 4.6 mph   80% 0.00 in WeatherDisplay:10.37 W/m2 CLR
06:33 65.5 °F 59.2 °F 30.07 in North 4.6 mph   80% 0.00 in WeatherDisplay:10.37 W/m2 CLR
06:38 65.5 °F 59.2 °F 30.07 in North 4.6 mph   80% 0.00 in WeatherDisplay:10.37 W/m2 CLR
06:43 65.5 °F 59.2 °F 30.07 in North 4.6 mph   80% 0.00 in WeatherDisplay:10.37 W/m2 CLR
06:48 65.5 °F 59.2 °F 30.07 in North 4.6 mph   80% 0.00 in WeatherDisplay:10.37 W/m2 CLR
06:53 65.5 °F 59.2 °F 30.07 in North 4.6 mph   80% 0.00 in WeatherDisplay:10.37 W/m2 CLR
06:58 65.5 °F 59.2 °F 30.07 in North 4.6 mph   80% 0.00 in WeatherDisplay:10.37 W/m2 CLR
07:03 65.5 °F 59.2 °F 30.07 in North 4.6 mph   80% 0.00 in WeatherDisplay:10.37 W/m2 CLR
07:08 65.5 °F 59.2 °F 30.07 in North 4.6 mph   80% 0.00 in WeatherDisplay:10.37 W/m2 CLR
07:13 65.5 °F 59.2 °F 30.07 in North 4.6 mph   80% 0.00 in WeatherDisplay:10.37 W/m2 CLR
07:18 65.5 °F 59.2 °F 30.07 in North 4.6 mph   80% 0.00 in WeatherDisplay:10.37 W/m2 CLR
07:20 65.5 °F 59.2 °F 30.07 in North 4.6 mph   80% 0.00 in WeatherDisplay:10.37 W/m2 CLR
07:25 65.5 °F 59.2 °F 30.07 in North 4.6 mph   80% 0.00 in WeatherDisplay:10.37 W/m2 CLR
07:30 65.5 °F 59.2 °F 30.07 in North 4.6 mph   80% 0.00 in WeatherDisplay:10.37 W/m2 CLR
07:35 65.5 °F 59.2 °F 30.07 in North 4.6 mph   80% 0.00 in WeatherDisplay:10.37 W/m2 CLR
07:40 65.5 °F 59.2 °F 30.07 in North 4.6 mph   80% 0.00 in WeatherDisplay:10.37 W/m2 CLR
07:45 65.5 °F 59.2 °F 30.07 in North 4.6 mph   80% 0.00 in WeatherDisplay:10.37 W/m2 BKN
07:50 65.5 °F 59.2 °F 30.07 in North 4.6 mph   80% 0.00 in WeatherDisplay:10.37 W/m2 BKN
07:55 65.5 °F 59.2 °F 30.07 in North 4.6 mph   80% 0.00 in WeatherDisplay:10.37 W/m2 BKN
08:00 65.5 °F 59.2 °F 30.08 in North 4.6 mph   80% 0.00 in WeatherDisplay:10.37 W/m2 BKN
08:05 65.5 °F 59.2 °F 30.08 in North 4.6 mph   80% 0.00 in WeatherDisplay:10.37 W/m2 BKN
08:10 65.5 °F 59.2 °F 30.08 in North 4.6 mph   80% 0.00 in WeatherDisplay:10.37 W/m2 BKN
08:15 66.2 °F 61.2 °F 30.08 in SW 4.6 mph   84% 0.00 in WeatherDisplay:10.37 W/m2 BKN
08:20 66.4 °F 61.4 °F 30.08 in SSW 4.6 mph 4.6 mph 84% 0.00 in WeatherDisplay:10.37 W/m2 BKN
08:26 66.7 °F 61.4 °F 30.08 in SW 4.6 mph   83% 0.00 in WeatherDisplay:10.37 W/m2 BKN
08:31 67.0 °F 61.7 °F 30.08 in SW 4.6 mph   83% 0.00 in WeatherDisplay:10.37 W/m2 BKN
08:36 67.3 °F 62.0 °F 30.08 in SW 4.6 mph   83% 0.00 in WeatherDisplay:10.37 W/m2 BKN
08:41 67.6 °F 61.2 °F 30.08 in SW 4.6 mph   80% 0.00 in WeatherDisplay:10.37 W/m2 BKN
08:46 67.9 °F 61.5 °F 30.08 in SW 4.6 mph   80% 0.00 in WeatherDisplay:10.37 W/m2 BKN
08:51 68.3 °F 61.5 °F 30.08 in WSW 4.6 mph 4.6 mph 79% 0.00 in WeatherDisplay:10.37 W/m2 BKN
08:56 68.6 °F 61.8 °F 30.08 in WSW 4.6 mph   79% 0.00 in WeatherDisplay:10.37 W/m2 BKN
09:01 69.0 °F 61.9 °F 30.08 in WSW 4.6 mph   78% 0.00 in WeatherDisplay:10.37 W/m2 BKN
09:06 69.4 °F 61.9 °F 30.08 in SW 4.6 mph 4.6 mph 77% 0.00 in WeatherDisplay:10.37 W/m2 BKN
09:11 69.8 °F 61.9 °F 30.08 in SW 4.6 mph 4.6 mph 76% 0.00 in WeatherDisplay:10.37 W/m2 BKN
09:16 70.3 °F 62.4 °F 30.08 in SW 4.6 mph 4.6 mph 76% 0.00 in WeatherDisplay:10.37 W/m2 BKN
09:21 70.7 °F 62.4 °F 30.08 in SW 4.6 mph 4.6 mph 75% 0.00 in WeatherDisplay:10.37 W/m2 BKN
09:26 71.1 °F 62.0 °F 30.08 in WSW 4.6 mph 4.6 mph 73% 0.00 in WeatherDisplay:10.37 W/m2 BKN
09:31 71.5 °F 61.6 °F 30.09 in West 4.6 mph 4.6 mph 71% 0.00 in WeatherDisplay:10.37 W/m2 BKN
09:36 71.8 °F 62.3 °F 30.09 in West 4.6 mph   72% 0.00 in WeatherDisplay:10.37 W/m2 BKN
09:41 72.2 °F 61.9 °F 30.09 in ESE 4.6 mph 4.6 mph 70% 0.00 in WeatherDisplay:10.37 W/m2 BKN
09:47 72.7 °F 61.9 °F 30.09 in SW 4.6 mph 4.6 mph 69% 0.00 in WeatherDisplay:10.37 W/m2 BKN
09:52 73.1 °F 61.5 °F 30.09 in West 4.6 mph   67% 0.00 in WeatherDisplay:10.37 W/m2 BKN
09:53 73.1 °F 61.9 °F 30.09 in West 4.6 mph   68% 0.00 in WeatherDisplay:10.37 W/m2 BKN
09:58 73.4 °F 62.2 °F 30.09 in SW 4.6 mph   68% 0.00 in WeatherDisplay:10.37 W/m2 BKN
10:03 73.7 °F 61.6 °F 30.09 in WSW 4.6 mph   66% 0.01 in WeatherDisplay:10.37 W/m2 RA
10:08 74.2 °F 61.7 °F 30.09 in North 4.6 mph   65% 0.01 in WeatherDisplay:10.37 W/m2 BKN
10:13 74.9 °F 60.1 °F 30.09 in ESE 4.6 mph 4.6 mph 60% 0.01 in WeatherDisplay:10.37 W/m2 BKN
10:18 75.6 °F 61.7 °F 30.09 in WNW 4.6 mph   62% 0.01 in WeatherDisplay:10.37 W/m2 BKN
10:23 76.3 °F 61.4 °F 30.09 in SW 4.6 mph 4.6 mph 60% 0.01 in WeatherDisplay:10.37 W/m2 BKN
10:28 77.1 °F 61.7 °F 30.09 in West 4.6 mph   59% 0.01 in WeatherDisplay:10.37 W/m2 BKN
10:33 77.5 °F 62.0 °F 30.09 in West 4.6 mph   59% 0.01 in WeatherDisplay:10.37 W/m2 BKN
10:38 77.7 °F 61.3 °F 30.09 in NNW 4.6 mph   57% 0.01 in WeatherDisplay:10.37 W/m2 BKN
10:43 77.7 °F 61.7 °F 30.09 in NNW 4.6 mph 4.6 mph 58% 0.01 in WeatherDisplay:10.37 W/m2 BKN
10:48 77.5 °F 61.1 °F 30.09 in SSW 4.6 mph   57% 0.01 in WeatherDisplay:10.37 W/m2 BKN
10:53 77.4 °F 61.0 °F 30.10 in SE 4.6 mph 4.6 mph 57% 0.01 in WeatherDisplay:10.37 W/m2 BKN
10:58 77.3 °F 60.4 °F 30.10 in SSW 4.6 mph 4.6 mph 56% 0.01 in WeatherDisplay:10.37 W/m2 BKN
11:03 77.2 °F 60.3 °F 30.10 in WNW 4.6 mph 4.6 mph 56% 0.00 in WeatherDisplay:10.37 W/m2 BKN
11:09 77.2 °F 61.8 °F 30.09 in North 4.6 mph   59% 0.00 in WeatherDisplay:10.37 W/m2 BKN
11:14 77.4 °F 61.9 °F 30.09 in ESE 4.6 mph   59% 0.00 in WeatherDisplay:10.37 W/m2 BKN
11:19 77.5 °F 61.1 °F 30.09 in East 4.6 mph 4.6 mph 57% 0.00 in WeatherDisplay:10.37 W/m2 BKN
11:24 77.7 °F 62.2 °F 30.09 in SW 4.6 mph 4.6 mph 59% 0.00 in WeatherDisplay:10.37 W/m2 BKN
11:29 77.7 °F 61.7 °F 30.09 in NNE 4.6 mph   58% 0.00 in WeatherDisplay:10.37 W/m2 BKN
11:34 77.6 °F 60.2 °F 30.09 in ENE 4.6 mph 4.6 mph 55% 0.00 in WeatherDisplay:10.37 W/m2 BKN
11:39 77.6 °F 59.6 °F 30.09 in ENE 4.6 mph 4.6 mph 54% 0.00 in WeatherDisplay:10.37 W/m2 BKN
11:44 77.5 °F 60.1 °F 30.08 in East 4.6 mph 4.6 mph 55% 0.00 in WeatherDisplay:10.37 W/m2 BKN
11:49 77.7 °F 61.3 °F 30.08 in WSW 4.6 mph 4.6 mph 57% 0.00 in WeatherDisplay:10.37 W/m2 BKN
11:54 77.9 °F 61.4 °F 30.08 in NW 4.6 mph 4.6 mph 57% 0.00 in WeatherDisplay:10.37 W/m2 BKN
11:59 78.0 °F 58.9 °F 30.08 in ENE 4.6 mph 4.6 mph 52% 0.00 in WeatherDisplay:10.37 W/m2 BKN
12:04 77.9 °F 59.9 °F 30.08 in NNE 4.6 mph   54% 0.00 in WeatherDisplay:10.37 W/m2 BKN
12:09 78.1 °F 59.0 °F 30.08 in ENE 4.6 mph   52% 0.00 in WeatherDisplay:10.37 W/m2 BKN
12:14 78.4 °F 59.3 °F 30.08 in East 4.6 mph 4.6 mph 52% 0.01 in WeatherDisplay:10.37 W/m2 RA
12:19 78.5 °F 59.4 °F 30.08 in East 4.6 mph 4.6 mph 52% 0.01 in WeatherDisplay:10.37 W/m2 BKN
12:24 78.8 °F 61.8 °F 30.08 in WNW 4.6 mph   56% 0.01 in WeatherDisplay:10.37 W/m2 BKN
12:29 79.0 °F 58.2 °F 30.08 in SSE 4.6 mph 4.6 mph 49% 0.01 in WeatherDisplay:10.37 W/m2 BKN
12:34 79.1 °F 58.3 °F 30.08 in WSW 4.6 mph 4.6 mph 49% 0.01 in WeatherDisplay:10.37 W/m2 BKN
12:40 79.4 °F 59.1 °F 30.08 in West 4.6 mph   50% 0.01 in WeatherDisplay:10.37 W/m2 BKN
12:44 80.0 °F 60.8 °F 30.08 in ENE 4.6 mph 4.6 mph 52% 0.01 in WeatherDisplay:10.37 W/m2 BKN
12:50 80.4 °F 58.9 °F 30.08 in NNW 1.0 mph 3.0 mph 48% 0.00 in WeatherDisplay:10.37 W/m2 BKN
12:55 80.7 °F 59.2 °F 30.08 in Calm   5.0 mph 48% 0.00 in WeatherDisplay:10.37 W/m2 BKN
13:00 80.9 °F 59.4 °F 30.08 in Calm   2.0 mph 48% 0.00 in WeatherDisplay:10.37 W/m2 BKN
13:05 81.4 °F 57.4 °F 30.08 in Calm   1.0 mph 44% 0.00 in WeatherDisplay:10.37 W/m2 BKN
13:10 81.9 °F 57.2 °F 30.08 in Calm   2.0 mph 43% 0.00 in WeatherDisplay:10.37 W/m2 BKN
13:15 82.4 °F 58.3 °F 30.08 in SW 1.0 mph 3.0 mph 44% 0.00 in WeatherDisplay:10.37 W/m2 SCT
13:20 82.6 °F 59.1 °F 30.08 in Calm   2.0 mph 45% 0.00 in WeatherDisplay:10.37 W/m2 SCT
13:25 82.0 °F 56.0 °F 30.08 in Calm   3.0 mph 41% 0.00 in WeatherDisplay:10.37 W/m2 SCT
13:30 82.0 °F 57.9 °F 30.08 in Calm   3.0 mph 44% 0.00 in WeatherDisplay:10.37 W/m2 SCT
13:31 81.9 °F 57.2 °F 30.07 in SSW 4.6 mph   43% 0.00 in WeatherDisplay:10.37 W/m2 SCT
13:36 82.1 °F 58.7 °F 30.07 in NNW 4.6 mph   45% 0.00 in WeatherDisplay:10.37 W/m2 SCT
13:41 82.5 °F 57.7 °F 30.07 in North 4.6 mph 4.6 mph 43% 0.00 in WeatherDisplay:10.37 W/m2 SCT
13:46 82.2 °F 56.8 °F 30.08 in SSE 4.6 mph 4.6 mph 42% 0.00 in WeatherDisplay:10.37 W/m2 SCT
13:51 81.8 °F 57.8 °F 30.08 in SE 4.6 mph 4.6 mph 44% 0.00 in WeatherDisplay:10.37 W/m2 SCT
13:57 81.9 °F 59.1 °F 30.07 in WNW 4.6 mph 4.6 mph 46% 0.00 in WeatherDisplay:10.37 W/m2 SCT
14:02 82.0 °F 57.9 °F 30.07 in SSW 4.6 mph   44% 0.00 in WeatherDisplay:10.37 W/m2 SCT
14:07 82.1 °F 56.7 °F 30.07 in NE 4.6 mph 4.6 mph 42% 0.00 in WeatherDisplay:10.37 W/m2 SCT
14:12 82.4 °F 58.9 °F 30.08 in NW 4.6 mph 4.6 mph 45% 0.00 in WeatherDisplay:10.37 W/m2 SCT
14:17 82.3 °F 54.9 °F 30.07 in SW 4.6 mph   39% 0.00 in WeatherDisplay:10.37 W/m2 SCT
14:22 82.1 °F 54.7 °F 30.07 in SSW 4.6 mph 4.6 mph 39% 0.00 in WeatherDisplay:10.37 W/m2 SCT
14:27 81.9 °F 55.9 °F 30.07 in WNW 4.6 mph   41% 0.00 in WeatherDisplay:10.37 W/m2 SCT
14:32 81.7 °F 53.6 °F 30.07 in West 4.6 mph 4.6 mph 38% 0.00 in WeatherDisplay:10.37 W/m2 SCT
14:37 81.4 °F 50.3 °F 30.07 in ENE 4.6 mph 4.6 mph 34% 0.00 in WeatherDisplay:10.37 W/m2 SCT
14:42 81.3 °F 55.3 °F 30.07 in SW 4.6 mph 4.6 mph 41% 0.00 in WeatherDisplay:10.37 W/m2 SCT
14:47 81.3 °F 56.7 °F 30.07 in NE 4.6 mph   43% 0.00 in WeatherDisplay:10.37 W/m2 SCT
14:52 81.4 °F 55.4 °F 30.06 in East 4.6 mph 4.6 mph 41% 0.00 in WeatherDisplay:10.37 W/m2 SCT
14:57 81.3 °F 56.7 °F 30.06 in West 4.6 mph 4.6 mph 43% 0.00 in WeatherDisplay:10.37 W/m2 SCT
15:03 81.1 °F 55.2 °F 30.06 in West 4.6 mph 4.6 mph 41% 0.00 in WeatherDisplay:10.37 W/m2 SCT
15:08 81.1 °F 55.8 °F 30.06 in SW 4.6 mph 4.6 mph 42% 0.00 in WeatherDisplay:10.37 W/m2 SCT
15:13 81.2 °F 57.8 °F 30.06 in SSE 4.6 mph 4.6 mph 45% 0.00 in WeatherDisplay:10.37 W/m2 SCT
15:18 81.1 °F 53.1 °F 30.06 in NW 4.6 mph 4.6 mph 38% 0.00 in WeatherDisplay:10.37 W/m2 SCT
15:23 80.9 °F 53.6 °F 30.05 in West 4.6 mph   39% 0.00 in WeatherDisplay:10.37 W/m2 SCT
15:28 80.8 °F 54.9 °F 30.05 in West 4.6 mph   41% 0.00 in WeatherDisplay:10.37 W/m2 SCT
15:33 80.8 °F 54.2 °F 30.05 in NW 4.6 mph   40% 0.00 in WeatherDisplay:10.37 W/m2 SCT
15:38 80.9 °F 53.6 °F 30.05 in NE 4.6 mph 4.6 mph 39% 0.00 in WeatherDisplay:10.37 W/m2 SCT
15:43 80.8 °F 53.5 °F 30.05 in SW 4.6 mph 4.6 mph 39% 0.00 in WeatherDisplay:10.37 W/m2 SCT
15:48 80.7 °F 53.4 °F 30.05 in WNW 4.6 mph   39% 0.00 in WeatherDisplay:10.37 W/m2 SCT
15:53 80.7 °F 53.4 °F 30.05 in ENE 4.6 mph 4.6 mph 39% 0.00 in WeatherDisplay:10.37 W/m2 SCT
15:58 80.7 °F 54.1 °F 30.05 in SSW 4.6 mph   40% 0.00 in WeatherDisplay:10.37 W/m2 SCT
16:03 80.9 °F 55.0 °F 30.05 in West 4.6 mph 4.6 mph 41% 0.00 in WeatherDisplay:10.37 W/m2 SCT
16:08 81.0 °F 54.4 °F 30.05 in SSW 4.6 mph   40% 0.00 in WeatherDisplay:10.37 W/m2 SCT
16:13 80.9 °F 55.0 °F 30.04 in WNW 4.6 mph 4.6 mph 41% 0.00 in WeatherDisplay:10.37 W/m2 SCT
16:18 81.1 °F 56.5 °F 30.04 in East 4.6 mph 4.6 mph 43% 0.00 in WeatherDisplay:10.37 W/m2 SCT
16:23 81.1 °F 54.5 °F 30.04 in NE 4.6 mph 4.6 mph 40% 0.00 in WeatherDisplay:10.37 W/m2 SCT
16:28 81.1 °F 55.2 °F 30.04 in NW 4.6 mph 4.6 mph 41% 0.00 in WeatherDisplay:10.37 W/m2 SCT
16:33 81.1 °F 56.5 °F 30.04 in WSW 4.6 mph 4.6 mph 43% 0.00 in WeatherDisplay:10.37 W/m2 SCT
16:34 81.1 °F 56.5 °F 30.04 in WSW 4.6 mph 4.6 mph 43% 0.00 in WeatherDisplay:10.37 W/m2 SCT
16:39 81.3 °F 57.9 °F 30.04 in WNW 4.6 mph   45% 0.00 in WeatherDisplay:10.37 W/m2 SCT
16:44 81.4 °F 56.1 °F 30.04 in East 4.6 mph 4.6 mph 42% 0.00 in WeatherDisplay:10.37 W/m2 SCT
16:49 81.7 °F 56.4 °F 30.04 in East 4.6 mph 4.6 mph 42% 0.00 in WeatherDisplay:10.37 W/m2 SCT
16:54 82.1 °F 57.4 °F 30.04 in East 4.6 mph   43% 0.00 in WeatherDisplay:10.37 W/m2 SCT
16:59 82.5 °F 55.0 °F 30.03 in NNE 4.6 mph 4.6 mph 39% 0.00 in WeatherDisplay:10.37 W/m2 SCT
17:04 82.9 °F 55.4 °F 30.04 in NNE 4.6 mph 4.6 mph 39% 0.00 in WeatherDisplay:10.37 W/m2 SCT
17:10 83.0 °F 55.5 °F 30.04 in SSW 4.6 mph 4.6 mph 39% 0.00 in WeatherDisplay:10.37 W/m2 SCT
17:15 83.0 °F 56.2 °F 30.03 in Calm   2.0 mph 40% 0.00 in WeatherDisplay:10.37 W/m2 FEW
17:20 83.0 °F 56.2 °F 30.04 in Calm   3.0 mph 40% 0.00 in WeatherDisplay:10.37 W/m2 FEW
17:25 83.2 °F 54.9 °F 30.03 in Calm   1.0 mph 38% 0.00 in WeatherDisplay:10.37 W/m2 FEW
17:30 82.9 °F 54.6 °F 30.04 in NE 1.0 mph 5.0 mph 38% 0.00 in WeatherDisplay:10.37 W/m2 FEW
17:35 82.1 °F 54.0 °F 30.04 in SSW 1.0 mph 5.0 mph 38% 0.00 in WeatherDisplay:10.37 W/m2 FEW
17:40 81.7 °F 55.7 °F 30.03 in Calm   1.0 mph 41% 0.00 in WeatherDisplay:10.37 W/m2 FEW
17:45 81.4 °F 55.5 °F 30.04 in Calm   1.0 mph 41% 0.00 in WeatherDisplay:10.37 W/m2 FEW
17:50 81.3 °F 55.3 °F 30.04 in West 5.1 mph   41% 0.00 in WeatherDisplay:10.37 W/m2 FEW
17:55 81.1 °F 54.5 °F 30.04 in Calm   2.0 mph 40% 0.00 in WeatherDisplay:10.37 W/m2 FEW
18:00 80.5 °F 54.0 °F 30.03 in SW 5.1 mph   40% 0.00 in WeatherDisplay:10.37 W/m2 FEW
18:05 80.3 °F 53.1 °F 30.03 in Calm   1.0 mph 39% 0.00 in WeatherDisplay:10.37 W/m2 FEW
18:10 80.4 °F 51.7 °F 30.03 in Calm   2.0 mph 37% 0.00 in WeatherDisplay:10.37 W/m2 FEW
18:15 80.3 °F 50.9 °F 30.03 in Calm   2.0 mph 36% 0.00 in WeatherDisplay:10.37 W/m2 FEW
18:20 80.0 °F 52.1 °F 30.03 in Calm   1.0 mph 38% 0.00 in WeatherDisplay:10.37 W/m2 FEW
18:30 79.3 °F 52.2 °F 30.03 in Calm   3.0 mph 39% 0.00 in WeatherDisplay:10.37 W/m2 FEW
18:35 79.1 °F 50.6 °F 30.03 in Calm   1.0 mph 37% 0.00 in WeatherDisplay:10.37 W/m2 FEW
18:40 78.9 °F 51.1 °F 30.03 in Calm   1.0 mph 38% 0.00 in WeatherDisplay:10.37 W/m2 FEW
18:43 78.6 °F 50.1 °F 30.03 in SSW 5.1 mph 5.1 mph 37% 0.00 in WeatherDisplay:10.37 W/m2 FEW
18:48 78.5 °F 50.8 °F 30.03 in West 5.1 mph   38% 0.00 in WeatherDisplay:10.37 W/m2 FEW
18:51 78.4 °F 50.0 °F 30.03 in North 5.1 mph 5.1 mph 37% 0.00 in WeatherDisplay:10.37 W/m2 FEW
18:56 78.3 °F 50.6 °F 30.03 in SW 5.1 mph 5.1 mph 38% 0.00 in WeatherDisplay:10.37 W/m2 FEW
19:01 78.1 °F 50.4 °F 30.03 in NE 5.1 mph 5.1 mph 38% 0.00 in WeatherDisplay:10.37 W/m2 FEW
19:06 78.0 °F 52.4 °F 30.03 in NE 5.1 mph   41% 0.00 in WeatherDisplay:10.37 W/m2 FEW
19:11 77.7 °F 50.8 °F 30.03 in West 5.1 mph 5.1 mph 39% 0.00 in WeatherDisplay:10.37 W/m2 FEW
19:16 77.5 °F 51.3 °F 30.03 in West 5.1 mph   40% 0.00 in WeatherDisplay:10.37 W/m2 FEW
19:21 77.2 °F 50.3 °F 30.03 in West 5.1 mph   39% 0.00 in WeatherDisplay:10.37 W/m2 FEW
19:26 77.0 °F 53.4 °F 30.03 in NW 5.1 mph   44% 0.00 in WeatherDisplay:10.37 W/m2 FEW
19:31 76.7 °F 52.5 °F 30.03 in NW 5.1 mph   43% 0.00 in WeatherDisplay:10.37 W/m2 FEW
19:36 76.6 °F 52.4 °F 30.03 in WSW 5.1 mph   43% 0.00 in WeatherDisplay:10.37 W/m2 FEW
19:41 76.3 °F 52.8 °F 30.04 in WSW 5.1 mph   44% 0.00 in WeatherDisplay:10.37 W/m2 FEW
19:46 76.1 °F 53.8 °F 30.04 in WSW 5.1 mph   46% 0.00 in WeatherDisplay:10.37 W/m2 FEW
19:51 75.8 °F 54.7 °F 30.04 in WSW 5.1 mph   48% 0.00 in WeatherDisplay:10.37 W/m2 FEW
19:56 75.6 °F 54.5 °F 30.04 in WSW 5.1 mph   48% 0.00 in WeatherDisplay:10.37 W/m2 FEW
20:01 75.3 °F 54.8 °F 30.04 in WSW 5.1 mph   49% 0.00 in WeatherDisplay:10.37 W/m2 FEW
20:06 75.0 °F 55.6 °F 30.04 in WSW 5.1 mph   51% 0.00 in WeatherDisplay:10.37 W/m2 FEW
20:11 74.8 °F 56.5 °F 30.04 in WSW 5.1 mph   53% 0.00 in WeatherDisplay:10.37 W/m2 FEW
20:17 74.4 °F 55.1 °F 30.04 in WSW 5.1 mph   51% 0.00 in WeatherDisplay:10.37 W/m2 FEW
20:22 74.1 °F 55.9 °F 30.04 in WSW 5.1 mph   53% 0.00 in WeatherDisplay:10.37 W/m2 FEW
20:27 73.9 °F 56.7 °F 30.04 in WSW 5.1 mph   55% 0.00 in WeatherDisplay:10.37 W/m2 FEW
20:32 73.7 °F 55.0 °F 30.04 in WSW 5.1 mph   52% 0.00 in WeatherDisplay:10.37 W/m2 FEW
20:37 73.5 °F 55.3 °F 30.04 in WSW 5.1 mph   53% 0.00 in WeatherDisplay:10.37 W/m2 FEW
20:42 73.3 °F 54.6 °F 30.04 in WSW 5.1 mph   52% 0.00 in WeatherDisplay:10.37 W/m2 FEW
20:47 73.1 °F 54.4 °F 30.05 in WSW 5.1 mph 5.1 mph 52% 0.00 in WeatherDisplay:10.37 W/m2 FEW
20:52 72.9 °F 54.8 °F 30.05 in WSW 5.1 mph   53% 0.00 in WeatherDisplay:10.37 W/m2 FEW
20:57 72.7 °F 54.6 °F 30.05 in WSW 5.1 mph   53% 0.00 in WeatherDisplay:10.37 W/m2 FEW
21:02 72.4 °F 54.8 °F 30.05 in WSW 5.1 mph   54% 0.00 in WeatherDisplay:10.37 W/m2 FEW
21:07 72.1 °F 55.0 °F 30.05 in WSW 5.1 mph   55% 0.00 in WeatherDisplay:10.37 W/m2 FEW
21:12 71.9 °F 55.8 °F 30.05 in WSW 5.1 mph   57% 0.00 in WeatherDisplay:10.37 W/m2 FEW
21:17 71.8 °F 56.2 °F 30.05 in WSW 5.1 mph   58% 0.00 in WeatherDisplay:10.37 W/m2 FEW
21:22 71.5 °F 56.9 °F 30.06 in WSW 5.1 mph   60% 0.00 in WeatherDisplay:10.37 W/m2 FEW
21:27 71.2 °F 56.6 °F 30.06 in WSW 5.1 mph   60% 0.00 in WeatherDisplay:10.37 W/m2 FEW
21:33 70.9 °F 55.9 °F 30.06 in WSW 5.1 mph   59% 0.00 in WeatherDisplay:10.37 W/m2 FEW
21:38 70.6 °F 55.6 °F 30.06 in WSW 5.1 mph   59% 0.00 in WeatherDisplay:10.37 W/m2 FEW
21:43 70.6 °F 56.5 °F 30.06 in WSW 5.1 mph   61% 0.00 in WeatherDisplay:10.37 W/m2 FEW
21:48 70.4 °F 55.8 °F 30.06 in WSW 5.1 mph   60% 0.00 in WeatherDisplay:10.37 W/m2 FEW
21:53 70.2 °F 56.6 °F 30.06 in WSW 5.1 mph   62% 0.00 in WeatherDisplay:10.37 W/m2 FEW
21:58 70.0 °F 56.4 °F 30.07 in WSW 5.1 mph   62% 0.00 in WeatherDisplay:10.37 W/m2 FEW
22:03 69.9 °F 57.2 °F 30.07 in WSW 5.1 mph   64% 0.00 in WeatherDisplay:10.37 W/m2 FEW
22:08 69.7 °F 56.5 °F 30.07 in WSW 5.1 mph   63% 0.00 in WeatherDisplay:10.37 W/m2 FEW
22:13 69.7 °F 56.1 °F 30.07 in WSW 5.1 mph   62% 0.00 in WeatherDisplay:10.37 W/m2 FEW
22:18 69.7 °F 56.5 °F 30.07 in WSW 5.1 mph   63% 0.00 in WeatherDisplay:10.37 W/m2 FEW
22:23 69.6 °F 56.0 °F 30.08 in WSW 5.1 mph   62% 0.00 in WeatherDisplay:10.37 W/m2 FEW
22:28 69.6 °F 56.4 °F 30.07 in WSW 5.1 mph   63% 0.00 in WeatherDisplay:10.37 W/m2 FEW
22:33 69.5 °F 56.8 °F 30.07 in WSW 5.1 mph   64% 0.00 in WeatherDisplay:10.37 W/m2 FEW
22:38 69.4 °F 57.5 °F 30.07 in WSW 5.1 mph 5.1 mph 66% 0.00 in WeatherDisplay:10.37 W/m2 FEW
22:43 69.4 °F 56.7 °F 30.07 in WSW 5.1 mph   64% 0.00 in WeatherDisplay:10.37 W/m2 FEW
22:48 69.3 °F 56.6 °F 30.08 in WSW 5.1 mph   64% 0.00 in WeatherDisplay:10.37 W/m2 FEW
22:54 69.3 °F 57.0 °F 30.08 in WSW 5.1 mph   65% 0.00 in WeatherDisplay:10.37 W/m2 FEW
22:59 69.2 °F 56.9 °F 30.08 in WSW 5.1 mph   65% 0.00 in WeatherDisplay:10.37 W/m2 FEW
23:04 69.0 °F 57.2 °F 30.08 in WSW 5.1 mph   66% 0.00 in WeatherDisplay:10.37 W/m2 FEW
23:09 69.0 °F 56.7 °F 30.08 in WSW 5.1 mph   65% 0.00 in WeatherDisplay:10.37 W/m2 FEW
23:14 69.1 °F 56.8 °F 30.08 in WSW 5.1 mph 5.1 mph 65% 0.00 in WeatherDisplay:10.37 W/m2 CLR
23:19 69.0 °F 56.3 °F 30.09 in WSW 5.1 mph   64% 0.00 in WeatherDisplay:10.37 W/m2 CLR
23:24 68.9 °F 57.5 °F 30.09 in WSW 5.1 mph   67% 0.00 in WeatherDisplay:10.37 W/m2 CLR
23:29 68.6 °F 57.6 °F 30.09 in WSW 5.1 mph   68% 0.00 in WeatherDisplay:10.37 W/m2 CLR
23:34 68.1 °F 57.5 °F 30.09 in WSW 5.1 mph   69% 0.00 in WeatherDisplay:10.37 W/m2 CLR
23:39 67.7 °F 57.6 °F 30.09 in WSW 5.1 mph   70% 0.00 in WeatherDisplay:10.37 W/m2 CLR
23:44 67.5 °F 57.8 °F 30.09 in WSW 5.1 mph   71% 0.00 in WeatherDisplay:10.37 W/m2 CLR
23:49 67.2 °F 57.5 °F 30.09 in WSW 5.1 mph   71% 0.00 in WeatherDisplay:10.37 W/m2 CLR
23:54 66.9 °F 58.0 °F 30.09 in WSW 5.1 mph   73% 0.00 in WeatherDisplay:10.37 W/m2 CLR
23:59 66.8 °F 57.9 °F 30.09 in WSW 5.1 mph   73% 0.00 in WeatherDisplay:10.37 W/m2 CLR
Piedmont Bend
Compliments of Weather Underground - 4 mb